createdAt,value
2023-09-07T00:01:28.896Z,98042.94
2023-09-07T00:05:33.952Z,98046.97
2023-09-07T00:09:37.749Z,98032.75
2023-09-07T00:13:41.557Z,98032.38
2023-09-07T00:17:45.554Z,98038.03
2023-09-07T00:21:53.658Z,98041.06
2023-09-07T00:25:57.208Z,98036.38
2023-09-07T00:30:00.836Z,98042.06
2023-09-07T00:34:03.967Z,98038.38
2023-09-07T00:38:09.643Z,98038.97
2023-09-07T00:42:13.458Z,98049.53
2023-09-07T00:46:17.871Z,98040.53
2023-09-07T00:50:21.702Z,98029.31
2023-09-07T00:54:27.558Z,98026.28
2023-09-07T00:58:31.207Z,98021.59
2023-09-07T01:02:35.360Z,98023.00
2023-09-07T01:06:42.158Z,98018.94
2023-09-07T01:10:47.415Z,98029.25
2023-09-07T01:14:51.219Z,98026.59
2023-09-07T01:18:55.981Z,98033.63
2023-09-07T01:23:02.226Z,98024.88
2023-09-07T01:27:07.641Z,98024.03
2023-09-07T01:31:11.304Z,98024.78
2023-09-07T01:35:18.342Z,98026.19
2023-09-07T01:39:23.432Z,98021.31
2023-09-07T01:43:26.825Z,98028.59
2023-09-07T01:47:30.814Z,98024.31
2023-09-07T01:51:34.953Z,98023.34
2023-09-07T01:55:40.267Z,98026.16
2023-09-07T01:59:43.509Z,98022.09
2023-09-07T02:03:46.954Z,98025.13
2023-09-07T02:07:52.358Z,98020.25
2023-09-07T02:11:57.472Z,98022.88
2023-09-07T02:16:01.165Z,98022.25
2023-09-07T02:20:10.846Z,98020.00
2023-09-07T02:24:14.769Z,98025.63
2023-09-07T02:28:19.799Z,98031.47
2023-09-07T02:32:23.298Z,98029.41
2023-09-07T02:36:26.894Z,98031.78
2023-09-07T02:40:30.612Z,98035.16
2023-09-07T02:44:36.023Z,98032.31
2023-09-07T02:48:39.214Z,98030.25
2023-09-07T02:52:42.576Z,98033.06
2023-09-07T02:56:45.841Z,98035.69
2023-09-07T03:00:51.610Z,98037.94
2023-09-07T03:05:00.325Z,98034.31
2023-09-07T03:09:03.660Z,98032.69
2023-09-07T03:13:07.472Z,98032.88
2023-09-07T03:17:12.842Z,98037.50
2023-09-07T03:21:16.276Z,98037.25
2023-09-07T03:25:19.732Z,98025.69
2023-09-07T03:29:23.255Z,98039.41
2023-09-07T03:33:28.302Z,98038.56
2023-09-07T03:37:32.486Z,98043.22
2023-09-07T03:41:36.151Z,98049.47
2023-09-07T03:45:39.333Z,98045.41
2023-09-07T03:49:44.313Z,98046.59
2023-09-07T03:53:48.136Z,98042.09
2023-09-07T03:57:51.498Z,98052.16
2023-09-07T04:01:56.916Z,98050.13
2023-09-07T04:06:03.216Z,98053.13
2023-09-07T04:10:07.755Z,98046.56
2023-09-07T04:14:11.509Z,98053.03
2023-09-07T04:18:16.690Z,98055.22
2023-09-07T04:22:21.845Z,98054.59
2023-09-07T04:26:25.463Z,98064.88
2023-09-07T04:30:29.263Z,98068.03
2023-09-07T04:34:33.196Z,98058.25
2023-09-07T04:38:38.828Z,98057.16
2023-09-07T04:42:42.246Z,98067.38
2023-09-07T04:46:46.429Z,98066.13
2023-09-07T04:50:50.193Z,98062.25
2023-09-07T04:54:55.432Z,98065.88
2023-09-07T04:58:58.772Z,98062.44
2023-09-07T05:03:02.521Z,98062.06
2023-09-07T05:07:06.763Z,98058.91
2023-09-07T05:11:11.651Z,98066.03
2023-09-07T05:15:14.989Z,98064.34
2023-09-07T05:19:19.109Z,98068.47
2023-09-07T05:23:24.163Z,98071.63
2023-09-07T05:27:29.855Z,98071.75
2023-09-07T05:31:33.110Z,98074.91
2023-09-07T05:35:37.236Z,98081.91
2023-09-07T05:39:40.341Z,98081.06
2023-09-07T05:43:45.717Z,98079.34
2023-09-07T05:47:48.986Z,98078.47
2023-09-07T05:56:04.433Z,98085.00
2023-09-07T06:00:11.097Z,98082.25
2023-09-07T06:04:15.550Z,98081.53
2023-09-07T06:08:19.396Z,98082.41
2023-09-07T06:12:22.991Z,98080.72
2023-09-07T06:16:27.941Z,98075.28
2023-09-07T06:20:31.835Z,98087.72
2023-09-07T06:24:35.123Z,98091.00
2023-09-07T06:28:39.018Z,98088.41
2023-09-07T06:32:45.074Z,98091.72
2023-09-07T06:36:49.000Z,98088.06
2023-09-07T06:40:52.660Z,98095.00
2023-09-07T06:44:56.545Z,98099.91
2023-09-07T06:49:01.455Z,98102.16
2023-09-07T06:53:05.946Z,98102.34
2023-09-07T06:57:09.361Z,98110.06
2023-09-07T07:01:13.283Z,98106.38
2023-09-07T07:05:18.804Z,98098.97
2023-09-07T07:09:22.300Z,98096.66
2023-09-07T07:13:25.859Z,98111.03
2023-09-07T07:17:30.116Z,98095.97
2023-09-07T07:21:35.838Z,98102.19
2023-09-07T07:25:39.381Z,98105.41
2023-09-07T07:29:43.338Z,98101.50
2023-09-07T07:33:46.565Z,98097.25
2023-09-07T07:37:53.381Z,98103.25
2023-09-07T07:41:56.811Z,98095.72
2023-09-07T07:46:01.058Z,98100.28
2023-09-07T07:50:04.466Z,98099.13
2023-09-07T07:54:10.140Z,98093.00
2023-09-07T07:58:13.837Z,98093.09
2023-09-07T08:02:18.395Z,98095.38
2023-09-07T08:06:22.010Z,98088.16
2023-09-07T08:10:29.472Z,98085.69
2023-09-07T08:14:35.204Z,98089.88
2023-09-07T08:18:39.801Z,98083.06
2023-09-07T08:22:43.659Z,98081.88
2023-09-07T08:26:52.791Z,98080.13
2023-09-07T08:30:56.513Z,98087.53
2023-09-07T08:35:02.814Z,98087.66
2023-09-07T08:39:09.918Z,98074.34
2023-09-07T08:43:16.880Z,98090.56
2023-09-07T08:47:21.422Z,98072.09
2023-09-07T08:51:25.853Z,98079.94
2023-09-07T08:55:29.946Z,98088.28
2023-09-07T08:59:34.915Z,98071.69
2023-09-07T09:03:38.677Z,98070.09
2023-09-07T09:07:42.385Z,98062.03
2023-09-07T09:11:46.175Z,98059.34
2023-09-07T09:15:52.211Z,98064.19
2023-09-07T09:19:55.914Z,98070.34
2023-09-07T09:24:01.545Z,98071.84
2023-09-07T09:28:05.771Z,98064.03
2023-09-07T09:32:11.481Z,98063.38
2023-09-07T09:36:15.205Z,98052.00
2023-09-07T09:40:19.008Z,98053.31
2023-09-07T09:44:27.299Z,98055.09
2023-09-07T09:48:34.559Z,98047.16
2023-09-07T09:52:39.744Z,98046.19
2023-09-07T09:56:44.388Z,98042.78
2023-09-07T10:00:51.122Z,98039.97
2023-09-07T10:04:56.549Z,98046.31
2023-09-07T10:09:02.502Z,98041.91
2023-09-07T10:13:09.084Z,98043.63
2023-09-07T10:17:13.165Z,98044.81
2023-09-07T10:21:18.561Z,98024.47
2023-09-07T10:25:24.522Z,98034.03
2023-09-07T10:29:31.053Z,98030.69
2023-09-07T10:33:35.656Z,98029.09
2023-09-07T10:37:41.964Z,98032.56
2023-09-07T10:41:47.414Z,98028.81
2023-09-07T10:45:51.916Z,98020.91
2023-09-07T10:50:00.808Z,98017.56
2023-09-07T10:54:16.882Z,98014.22
2023-09-07T10:58:30.976Z,98003.59
2023-09-07T11:02:35.137Z,98009.44
2023-09-07T11:06:39.411Z,98004.69
2023-09-07T11:10:44.131Z,97989.63
2023-09-07T11:14:50.558Z,97996.84
2023-09-07T11:18:56.234Z,97998.94
2023-09-07T11:23:05.274Z,97994.84
2023-09-07T11:27:12.244Z,97999.69
2023-09-07T11:31:17.176Z,97992.69
2023-09-07T11:35:20.457Z,97986.47
2023-09-07T11:39:24.297Z,97981.91
2023-09-07T11:43:29.650Z,97982.44
2023-09-07T11:47:33.894Z,97981.41
2023-09-07T11:51:37.658Z,97984.81
2023-09-07T11:55:43.129Z,97972.13
2023-09-07T11:59:58.642Z,97982.22
2023-09-07T12:04:04.425Z,97972.47
2023-09-07T12:08:08.281Z,97980.56
2023-09-07T12:12:13.189Z,97979.22
2023-09-07T12:16:18.197Z,97977.22
2023-09-07T12:20:23.423Z,97973.72
2023-09-07T12:24:26.875Z,97975.53
2023-09-07T12:28:30.759Z,97972.19
2023-09-07T12:32:35.556Z,97979.56
2023-09-07T12:36:49.714Z,97959.53
2023-09-07T12:40:53.611Z,97960.94
2023-09-07T12:44:57.324Z,97955.16
2023-09-07T12:49:02.459Z,97953.97
2023-09-07T12:53:06.455Z,97954.41
2023-09-07T12:57:10.064Z,97945.41
2023-09-07T13:01:16.753Z,97944.00
2023-09-07T13:05:22.012Z,97946.00
2023-09-07T13:09:25.269Z,97941.78
2023-09-07T13:13:30.702Z,97942.97
2023-09-07T13:17:35.157Z,97933.25
2023-09-07T13:21:40.357Z,97939.66
2023-09-07T13:25:44.339Z,97936.38
2023-09-07T13:29:47.596Z,97933.50
2023-09-07T13:33:51.782Z,97940.31
2023-09-07T13:37:58.183Z,97937.47
2023-09-07T13:42:02.559Z,97926.88
2023-09-07T13:46:05.839Z,97926.28
2023-09-07T13:50:10.391Z,97921.88
2023-09-07T13:54:15.329Z,97922.69
2023-09-07T13:58:18.883Z,97912.19
2023-09-07T14:02:22.222Z,97922.28
2023-09-07T14:06:26.328Z,97919.91
2023-09-07T14:10:31.792Z,97918.50
2023-09-07T14:14:35.369Z,97919.59
2023-09-07T14:18:41.799Z,97913.69
2023-09-07T14:22:45.284Z,97920.28
2023-09-07T14:26:50.064Z,97916.28
2023-09-07T14:30:55.616Z,97919.81
2023-09-07T14:34:59.923Z,97917.72
2023-09-07T14:39:04.067Z,97914.31
2023-09-07T14:43:12.178Z,97908.78
2023-09-07T14:47:15.732Z,97913.78
2023-09-07T14:51:18.981Z,97916.94
2023-09-07T14:55:22.188Z,97914.91
2023-09-07T14:59:27.506Z,97915.78
2023-09-07T15:03:30.842Z,97927.16
2023-09-07T15:07:34.450Z,97922.25
2023-09-07T15:11:38.159Z,97916.25
2023-09-07T15:15:44.269Z,97917.31
2023-09-07T15:19:48.172Z,97916.81
2023-09-07T15:23:51.745Z,97915.25
2023-09-07T15:27:55.512Z,97916.81
2023-09-07T15:32:00.450Z,97917.25
2023-09-07T15:36:03.910Z,97920.44
2023-09-07T15:40:09.953Z,97916.94
2023-09-07T15:44:13.471Z,97922.50
2023-09-07T15:48:18.721Z,97931.38
2023-09-07T15:52:22.984Z,97930.47
2023-09-07T15:56:26.422Z,97937.13
2023-09-07T16:00:30.890Z,97935.38
2023-09-07T16:04:35.593Z,97936.53
2023-09-07T16:08:38.971Z,97934.50
2023-09-07T16:12:42.404Z,97934.38
2023-09-07T16:16:46.119Z,97929.91
2023-09-07T16:20:51.795Z,97929.19
2023-09-07T16:24:55.349Z,97930.09
2023-09-07T16:28:58.512Z,97934.25
2023-09-07T16:33:02.289Z,97930.31
2023-09-07T16:37:07.932Z,97929.88
2023-09-07T16:41:11.675Z,97934.22
2023-09-07T16:45:18.109Z,97940.44
2023-09-07T16:49:21.607Z,97932.41
2023-09-07T16:53:28.140Z,97940.16
2023-09-07T16:57:31.344Z,97932.13
2023-09-07T17:01:34.947Z,97939.03
2023-09-07T17:05:40.891Z,97946.16
2023-09-07T17:09:45.741Z,97943.13
2023-09-07T17:14:01.047Z,97944.63
2023-09-07T17:18:06.294Z,97951.63
2023-09-07T17:22:10.443Z,97945.88
2023-09-07T17:26:15.956Z,97949.72
2023-09-07T17:30:20.973Z,97949.78
2023-09-07T17:34:26.137Z,97960.25
2023-09-07T17:38:33.477Z,97945.31
2023-09-07T17:42:41.452Z,97961.66
2023-09-07T17:46:46.273Z,97958.50
2023-09-07T17:50:52.385Z,97969.44
2023-09-07T17:54:56.922Z,97967.41
2023-09-07T17:59:03.193Z,97968.22
2023-09-07T18:03:09.541Z,97969.84
2023-09-07T18:07:16.158Z,97965.88
2023-09-07T18:11:21.131Z,97979.22
2023-09-07T18:15:26.682Z,97977.06
2023-09-07T18:19:30.541Z,97979.47
2023-09-07T18:23:34.118Z,97987.19
2023-09-07T18:27:37.503Z,97985.84
2023-09-07T18:31:45.425Z,97979.75
2023-09-07T18:35:49.364Z,97989.63
2023-09-07T18:39:56.435Z,97985.94
2023-09-07T18:44:03.392Z,97992.09
2023-09-07T18:48:10.785Z,97986.91
2023-09-07T18:52:15.517Z,97991.78
2023-09-07T18:56:19.214Z,97989.94
2023-09-07T19:00:23.664Z,97989.50
2023-09-07T19:04:36.382Z,98002.28
2023-09-07T19:08:39.916Z,98000.44
2023-09-07T19:12:44.849Z,97996.50
2023-09-07T19:16:51.194Z,98004.03
2023-09-07T19:21:21.518Z,98004.56
2023-09-07T19:25:27.642Z,97999.00
2023-09-07T19:29:32.038Z,98001.78
2023-09-07T19:33:38.199Z,98003.28
2023-09-07T19:37:45.877Z,98003.69
2023-09-07T19:41:51.563Z,97998.25
2023-09-07T19:45:55.686Z,97999.75
2023-09-07T19:49:59.887Z,97997.41
2023-09-07T19:54:06.925Z,97998.31
2023-09-07T19:58:14.716Z,98007.41
2023-09-07T20:02:18.853Z,98006.47
2023-09-07T20:06:27.979Z,97999.63
2023-09-07T20:10:36.633Z,97997.28
2023-09-07T20:14:41.308Z,98000.00
2023-09-07T20:18:46.262Z,97998.50
2023-09-07T20:22:52.601Z,97994.28
2023-09-07T20:27:01.809Z,97996.41
2023-09-07T20:31:07.148Z,97992.66
2023-09-07T20:35:21.936Z,97996.63
2023-09-07T20:39:26.255Z,97997.38
2023-09-07T20:43:37.274Z,97989.13
2023-09-07T20:47:40.686Z,97990.84
2023-09-07T20:51:44.632Z,97988.72
2023-09-07T20:55:49.919Z,97978.59
2023-09-07T20:59:55.199Z,97981.28
2023-09-07T21:03:59.101Z,97981.59
2023-09-07T21:08:05.200Z,97989.78
2023-09-07T21:12:12.898Z,97995.16
2023-09-07T21:16:18.389Z,97989.47
2023-09-07T21:20:21.988Z,97991.53
2023-09-07T21:24:26.348Z,97993.78
2023-09-07T21:28:30.053Z,97993.22
2023-09-07T21:32:36.911Z,97993.63
2023-09-07T21:36:43.513Z,97988.97
2023-09-07T21:40:53.921Z,97985.94
2023-09-07T21:44:59.314Z,97990.47
2023-09-07T21:49:04.574Z,97987.69
2023-09-07T21:53:08.077Z,97984.22
2023-09-07T21:57:12.026Z,97986.13
2023-09-07T22:01:16.346Z,97976.38
2023-09-07T22:05:21.754Z,97979.25
2023-09-07T22:09:27.848Z,97977.69
2023-09-07T22:13:31.522Z,97979.78
2023-09-07T22:17:35.636Z,97981.84
2023-09-07T22:21:41.821Z,97974.97
2023-09-07T22:25:45.530Z,97975.78
2023-09-07T22:29:49.407Z,97975.00
2023-09-07T22:33:53.009Z,97981.56
2023-09-07T22:37:58.104Z,97975.03
2023-09-07T22:42:01.335Z,97970.19
2023-09-07T22:46:05.218Z,97965.75
2023-09-07T22:50:10.130Z,97960.06
2023-09-07T22:54:15.296Z,97960.88
2023-09-07T22:58:21.842Z,97964.94
2023-09-07T23:02:25.621Z,97957.59
2023-09-07T23:06:29.605Z,97954.75
2023-09-07T23:10:36.215Z,97961.69
2023-09-07T23:14:39.610Z,97951.31
2023-09-07T23:18:43.199Z,97953.34
2023-09-07T23:22:46.529Z,97953.97
2023-09-07T23:26:52.371Z,97945.44
2023-09-07T23:30:56.217Z,97939.13
2023-09-07T23:35:00.446Z,97939.78
2023-09-07T23:39:03.876Z,97941.19
2023-09-07T23:43:09.719Z,97943.88
2023-09-07T23:47:12.954Z,97946.91
2023-09-07T23:51:16.596Z,97942.25
2023-09-07T23:55:20.034Z,97943.06
2023-09-07T23:59:25.032Z,97946.31
